Time;durP1;ratioP1;P1;durP2;ratioP2;P2;SDS_P1;SDS_P2;PMS_P1;PMS_P2;Temp;Humidity;BMP_temperature;BMP_pressure;BME280_temperature;BME280_humidity;BME280_pressure;Samples;Min_cycle;Max_cycle;Signal;HPM_P1;HPM_P2
2022/03/08 00:00:58;;;;;;;;;45.00;38.75;;;;;3.24;48.28;101560.34;5023709;28;45507;-66
2022/03/08 00:03:24;;;;;;;;;53.50;41.00;;;;;3.17;48.50;101559.78;5020792;28;45306;-66
2022/03/08 00:05:50;;;;;;;;;49.75;41.25;;;;;3.20;48.46;101556.97;5014112;28;46057;-66
2022/03/08 00:08:15;;;;;;;;;43.50;35.50;;;;;3.16;48.76;101559.88;5021175;28;45277;-65
2022/03/08 00:10:41;;;;;;;;;47.75;41.50;;;;;3.11;48.71;101547.56;5023681;28;45259;-66
2022/03/08 00:13:06;;;;;;;;;37.75;34.00;;;;;3.13;48.59;101553.75;5023851;28;46294;-66
2022/03/08 00:15:32;;;;;;;;;43.25;34.75;;;;;3.12;48.72;101554.69;5016716;28;45315;-66
2022/03/08 00:17:57;;;;;;;;;51.00;42.50;;;;;3.12;49.00;101552.00;5022508;28;45283;-66
2022/03/08 00:20:24;;;;;;;;;45.25;40.75;;;;;3.10;48.49;101544.97;5025000;28;45308;-66
2022/03/08 00:22:50;;;;;;;;;55.25;41.75;;;;;3.07;48.98;101547.81;5022027;28;48396;-66
2022/03/08 00:25:16;;;;;;;;;47.25;39.25;;;;;3.09;48.96;101553.97;5018762;28;45347;-66
2022/03/08 00:27:45;;;;;;;;;59.25;41.75;;;;;3.05;49.08;101544.34;5022158;28;45800;-66
2022/03/08 00:30:13;;;;;;;;;52.50;44.00;;;;;3.02;49.74;101548.06;5020200;28;45446;-66
2022/03/08 00:32:39;;;;;;;;;55.50;36.50;;;;;2.96;49.90;101553.75;5020237;28;47031;-66
2022/03/08 00:35:05;;;;;;;;;42.75;38.75;;;;;2.95;49.57;101549.31;5027906;28;45258;-66
2022/03/08 00:37:30;;;;;;;;;62.25;42.50;;;;;2.95;50.04;101559.19;5020913;28;45370;-66
2022/03/08 00:39:56;;;;;;;;;46.75;39.00;;;;;2.91;49.79;101553.13;5018284;28;45321;-66
2022/03/08 00:42:21;;;;;;;;;48.50;36.00;;;;;2.91;49.91;101553.13;5022178;28;45517;-66
2022/03/08 00:44:47;;;;;;;;;41.25;38.00;;;;;2.95;49.59;101559.19;5016449;28;45330;-66
2022/03/08 00:47:13;;;;;;;;;52.50;40.25;;;;;2.87;50.04;101556.91;5019171;28;45464;-66
2022/03/08 00:49:39;;;;;;;;;48.00;39.75;;;;;2.85;50.09;101550.75;5024489;28;46496;-65
2022/03/08 00:52:05;;;;;;;;;35.75;27.00;;;;;2.85;50.45;101561.47;5019997;28;45407;-66
2022/03/08 00:54:31;;;;;;;;;41.75;37.75;;;;;2.86;49.90;101552.47;5028164;28;45303;-67
2022/03/08 00:56:57;;;;;;;;;47.50;40.00;;;;;2.81;50.22;101543.81;5020695;28;45535;-66
2022/03/08 00:59:22;;;;;;;;;55.75;42.75;;;;;2.77;50.17;101547.63;5014204;28;45415;-66
2022/03/08 01:01:48;;;;;;;;;46.25;39.25;;;;;2.78;50.08;101546.63;5019621;28;46288;-66
2022/03/08 01:04:13;;;;;;;;;43.00;34.25;;;;;2.73;50.21;101543.34;5017231;28;45331;-66
2022/03/08 01:06:42;;;;;;;;;40.75;33.50;;;;;2.70;50.00;101535.47;5023113;28;45374;-66
2022/03/08 01:09:08;;;;;;;;;54.75;41.25;;;;;2.69;50.30;101541.78;5013203;28;45426;-66
2022/03/08 01:11:36;;;;;;;;;57.00;45.25;;;;;2.57;50.31;101520.91;5020019;28;45354;-66
2022/03/08 01:14:03;;;;;;;;;52.25;43.50;;;;;2.65;50.64;101541.03;5038731;28;45325;-66
2022/03/08 01:16:28;;;;;;;;;36.00;32.75;;;;;2.62;50.22;101537.66;5022796;28;45461;-66
2022/03/08 01:18:54;;;;;;;;;49.25;37.50;;;;;2.62;50.34;101529.63;5019069;28;45481;-66
2022/03/08 01:21:19;;;;;;;;;52.00;40.50;;;;;2.59;50.84;101535.13;5036084;28;47237;-66
2022/03/08 01:23:44;;;;;;;;;52.25;38.50;;;;;2.58;50.76;101531.56;5018253;28;45358;-66
2022/03/08 01:26:10;;;;;;;;;41.00;40.75;;;;;2.56;50.77;101536.16;5021293;28;45410;-67
2022/03/08 01:28:35;;;;;;;;;48.75;38.25;;;;;2.53;51.57;101532.75;5021712;28;45369;-66
2022/03/08 01:31:01;;;;;;;;;56.25;43.50;;;;;2.48;50.77;101529.47;5023280;28;45347;-66
2022/03/08 01:33:27;;;;;;;;;52.75;44.25;;;;;2.51;50.92;101535.53;5013896;28;45446;-66
2022/03/08 01:35:54;;;;;;;;;47.75;38.50;;;;;2.47;51.05;101530.41;5023199;28;45390;-66
2022/03/08 01:38:19;;;;;;;;;46.25;41.25;;;;;2.47;50.89;101527.72;5013970;28;45387;-66
2022/03/08 01:40:45;;;;;;;;;45.25;41.50;;;;;2.50;51.44;101538.28;5023109;28;45436;-66
2022/03/08 01:43:10;;;;;;;;;49.25;43.50;;;;;2.46;51.25;101532.22;5013791;28;45829;-67
2022/03/08 01:45:36;;;;;;;;;49.75;41.25;;;;;2.44;51.20;101520.69;5022207;28;45542;-66
2022/03/08 01:48:01;;;;;;;;;42.75;39.00;;;;;2.45;50.94;101530.47;5016610;28;45464;-67
2022/03/08 01:50:27;;;;;;;;;55.50;40.00;;;;;2.44;51.32;101525.19;5035998;28;48498;-67
2022/03/08 01:52:53;;;;;;;;;43.00;35.00;;;;;2.43;50.88;101523.44;5017633;28;45514;-66
2022/03/08 01:55:20;;;;;;;;;48.75;38.50;;;;;2.40;51.43;101523.63;5023103;28;45306;-66
2022/03/08 01:57:48;;;;;;;;;45.00;39.25;;;;;2.33;51.53;101518.56;5022768;28;46005;-66
2022/03/08 02:00:17;;;;;;;;;48.00;41.50;;;;;2.40;51.11;101523.63;5011503;28;46221;-66
2022/03/08 02:02:43;;;;;;;;;44.00;36.50;;;;;2.31;51.71;101515.09;5014776;28;45244;-66
2022/03/08 02:05:10;;;;;;;;;42.50;37.75;;;;;2.29;51.59;101510.72;5016510;28;45391;-66
2022/03/08 02:07:36;;;;;;;;;35.75;30.25;;;;;2.32;51.72;101522.19;5013680;28;45733;-66
2022/03/08 02:10:03;;;;;;;;;47.25;38.50;;;;;2.31;51.14;101515.09;5017843;28;47195;-66
2022/03/08 02:12:29;;;;;;;;;52.25;40.75;;;;;2.27;51.71;101513.47;5014555;28;45264;-66
2022/03/08 02:14:54;;;;;;;;;55.75;40.50;;;;;2.29;51.34;101511.59;5015045;28;45502;-66
2022/03/08 02:17:19;;;;;;;;;55.00;43.00;;;;;2.21;52.17;101510.25;5022573;28;45418;-66
2022/03/08 02:19:45;;;;;;;;;46.00;35.75;;;;;2.16;52.39;101507.81;5015692;28;46325;-66
2022/03/08 02:22:10;;;;;;;;;45.75;40.25;;;;;2.15;52.35;101508.75;5022154;28;45493;-66
2022/03/08 02:24:35;;;;;;;;;43.00;30.50;;;;;2.08;52.53;101495.72;5016846;28;46017;-66
2022/03/08 02:27:01;;;;;;;;;48.75;41.25;;;;;2.04;53.10;101492.34;5019679;28;45521;-66
2022/03/08 02:29:27;;;;;;;;;46.25;34.25;;;;;2.02;52.81;101499.59;5022329;28;46216;-66
2022/03/08 02:31:54;;;;;;;;;48.25;35.25;;;;;2.01;53.07;101497.84;5020820;28;45759;-66
2022/03/08 02:34:19;;;;;;;;;59.75;40.75;;;;;2.01;52.97;101487.13;5028896;28;45378;-66
2022/03/08 02:36:59;;;;;;;;;62.50;42.75;;;;;2.01;52.93;101492.47;5022123;28;45337;-66
2022/03/08 02:39:25;;;;;;;;;55.25;42.75;;;;;1.98;52.92;101494.44;5013509;28;45330;-66
2022/03/08 02:41:50;;;;;;;;;49.50;40.50;;;;;1.92;53.54;101490.25;5020639;28;45767;-66
2022/03/08 02:44:16;;;;;;;;;43.50;40.75;;;;;1.91;53.54;101494.75;5020977;28;45255;-66
2022/03/08 02:46:41;;;;;;;;;48.00;41.00;;;;;1.88;53.76;101494.03;5022619;28;45442;-66
2022/03/08 02:49:07;;;;;;;;;52.75;41.75;;;;;1.86;53.89;101490.56;5013425;28;46342;-66
2022/03/08 02:51:32;;;;;;;;;56.50;41.75;;;;;1.86;53.98;101488.75;5021766;28;45413;-64
2022/03/08 02:53:57;;;;;;;;;39.00;35.25;;;;;1.87;53.70;101487.81;5012641;28;45501;-67
2022/03/08 02:56:22;;;;;;;;;47.00;38.25;;;;;1.82;54.29;101483.63;5013603;28;45446;-66
2022/03/08 02:58:48;;;;;;;;;55.50;41.25;;;;;1.80;53.49;101482.81;5018091;28;45381;-66
2022/03/08 03:01:13;;;;;;;;;54.75;40.00;;;;;1.84;53.25;101482.59;5013415;28;45425;-66
2022/03/08 03:03:39;;;;;;;;;60.00;43.25;;;;;1.85;53.54;101475.41;5036460;28;45383;-66
2022/03/08 03:06:04;;;;;;;;;52.75;41.75;;;;;1.82;54.04;101472.91;5022539;28;45382;-67
2022/03/08 03:08:29;;;;;;;;;41.25;40.25;;;;;1.80;53.85;101469.44;5019775;28;45546;-66
2022/03/08 03:10:54;;;;;;;;;43.25;37.00;;;;;1.79;54.05;101478.41;5013011;28;45363;-66
2022/03/08 03:13:20;;;;;;;;;45.50;36.75;;;;;1.80;54.01;101474.78;5021567;28;45495;-66
2022/03/08 03:15:45;;;;;;;;;63.00;44.50;;;;;1.74;54.44;101467.06;5014701;28;45449;-66
2022/03/08 03:18:11;;;;;;;;;59.25;42.75;;;;;1.77;54.05;101470.44;5021097;28;45400;-66
2022/03/08 03:20:36;;;;;;;;;47.75;42.75;;;;;1.72;54.41;101466.25;5017751;28;45318;-66
2022/03/08 03:23:02;;;;;;;;;61.75;41.50;;;;;1.71;54.90;101464.50;5017640;28;45448;-66
2022/03/08 03:25:27;;;;;;;;;54.00;42.50;;;;;1.67;54.80;101460.25;5018633;28;45517;-66
2022/03/08 03:27:52;;;;;;;;;51.75;41.50;;;;;1.63;54.64;101466.69;5022841;28;47049;-66
2022/03/08 03:30:18;;;;;;;;;53.75;44.50;;;;;1.57;55.18;101457.16;5025259;28;45406;-66
2022/03/08 03:32:44;;;;;;;;;46.75;40.75;;;;;1.50;55.46;101461.06;5023541;28;45339;-66
2022/03/08 03:35:11;;;;;;;;;42.00;37.50;;;;;1.50;54.99;101459.25;5025729;28;45485;-66
2022/03/08 03:37:37;;;;;;;;;43.75;39.25;;;;;1.57;54.96;101454.47;5027086;28;47455;-66
2022/03/08 03:40:04;;;;;;;;;48.50;42.25;;;;;1.52;55.23;101451.16;5040483;28;45289;-66
2022/03/08 03:42:30;;;;;;;;;48.75;39.50;;;;;1.52;55.56;101448.47;5022629;28;45358;-66
2022/03/08 03:44:55;;;;;;;;;63.75;46.00;;;;;1.47;55.74;101450.47;5018620;28;46345;-66
2022/03/08 03:47:20;;;;;;;;;44.75;39.50;;;;;1.50;55.28;101445.00;5022909;28;47390;-66
2022/03/08 03:49:46;;;;;;;;;61.50;45.75;;;;;1.40;55.89;101443.69;5025067;28;45279;-66
2022/03/08 03:52:11;;;;;;;;;47.50;42.50;;;;;1.40;55.59;101449.03;5019595;28;45726;-66
2022/03/08 03:54:37;;;;;;;;;46.75;38.25;;;;;1.36;55.72;101448.34;5014406;28;45569;-65
2022/03/08 03:57:02;;;;;;;;;48.75;42.25;;;;;1.39;55.83;101447.34;5020265;28;47373;-65
2022/03/08 03:59:28;;;;;;;;;56.25;42.50;;;;;1.32;55.73;101438.69;5015391;28;45347;-65
2022/03/08 04:01:53;;;;;;;;;48.75;40.50;;;;;1.42;55.66;101450.72;5021308;28;45375;-65
2022/03/08 04:04:18;;;;;;;;;53.00;40.75;;;;;1.32;56.41;101445.84;5018993;28;45375;-65
2022/03/08 04:06:44;;;;;;;;;49.75;39.25;;;;;1.31;55.94;101450.38;5023639;28;46342;-66
2022/03/08 04:09:09;;;;;;;;;47.75;41.25;;;;;1.34;55.74;101449.34;5017851;28;45299;-65
2022/03/08 04:11:35;;;;;;;;;55.75;44.25;;;;;1.33;56.30;101448.47;5022016;28;46007;-65
2022/03/08 04:14:01;;;;;;;;;58.25;45.25;;;;;1.34;56.13;101450.22;5019518;28;45390;-65
2022/03/08 04:16:26;;;;;;;;;47.75;40.75;;;;;1.32;55.89;101446.72;5036609;28;47062;-66
2022/03/08 04:18:52;;;;;;;;;51.25;42.25;;;;;1.33;55.52;101437.75;5020082;28;45413;-65
2022/03/08 04:21:17;;;;;;;;;49.75;41.50;;;;;1.36;55.43;101448.34;5021675;28;45543;-66
2022/03/08 04:23:43;;;;;;;;;54.00;44.50;;;;;1.32;55.87;101449.41;5021333;28;45406;-66
2022/03/08 04:26:09;;;;;;;;;48.00;41.50;;;;;1.30;55.83;101450.44;5021549;28;45571;-66
2022/03/08 04:28:34;;;;;;;;;50.25;41.75;;;;;1.29;56.35;101446.88;5022789;28;45868;-67
2022/03/08 04:31:00;;;;;;;;;54.75;45.00;;;;;1.21;56.76;101443.69;5023553;28;45339;-67
2022/03/08 04:33:25;;;;;;;;;64.75;46.00;;;;;1.13;57.18;101437.84;5015333;28;45620;-66
2022/03/08 04:35:50;;;;;;;;;46.00;40.25;;;;;1.11;57.07;101437.03;5024101;28;46186;-67
2022/03/08 04:38:16;;;;;;;;;41.00;38.75;;;;;1.08;57.42;101434.53;5021992;28;45453;-67
2022/03/08 04:40:41;;;;;;;;;55.75;35.50;;;;;1.12;57.05;101428.94;5022787;28;45379;-67
2022/03/08 04:43:06;;;;;;;;;55.75;46.50;;;;;1.16;56.58;101430.56;5015907;28;45613;-66
2022/03/08 04:45:32;;;;;;;;;52.25;42.00;;;;;1.24;56.30;101438.22;5022106;28;45312;-67
2022/03/08 04:47:57;;;;;;;;;56.50;43.25;;;;;1.29;56.03;101435.31;5017833;28;45344;-66
2022/03/08 04:50:23;;;;;;;;;56.50;45.25;;;;;1.27;56.45;101438.06;5021035;28;45730;-66
2022/03/08 04:52:50;;;;;;;;;53.00;43.25;;;;;1.21;56.54;101434.81;5019235;28;45413;-66
2022/03/08 04:55:18;;;;;;;;;47.00;36.50;;;;;1.18;56.73;101433.13;5011718;28;45810;-67
2022/03/08 04:57:44;;;;;;;;;48.50;42.00;;;;;1.27;55.69;101430.03;5023265;28;45331;-66
2022/03/08 05:00:11;;;;;;;;;47.75;38.25;;;;;1.31;55.55;101437.00;5012112;28;45426;-67
2022/03/08 05:02:38;;;;;;;;;58.00;43.50;;;;;1.29;55.87;101428.16;5020004;28;45277;-66
2022/03/08 05:05:05;;;;;;;;;64.25;45.75;;;;;1.34;55.29;101431.47;5021585;28;45576;-66
2022/03/08 05:07:30;;;;;;;;;52.25;38.00;;;;;1.37;55.43;101434.00;5022041;28;45351;-65
2022/03/08 05:09:56;;;;;;;;;45.75;40.75;;;;;1.39;55.14;101426.75;5023072;28;45466;-66
2022/03/08 05:12:21;;;;;;;;;54.00;44.50;;;;;1.35;55.38;101433.22;5023355;28;45228;-66
2022/03/08 05:14:46;;;;;;;;;50.75;41.75;;;;;1.32;55.71;101427.13;5015836;28;45722;-66
2022/03/08 05:17:12;;;;;;;;;53.25;45.75;;;;;1.31;55.69;101422.72;5022948;28;45229;-66
2022/03/08 05:19:37;;;;;;;;;57.00;44.25;;;;;1.28;56.50;101423.72;5032460;28;45378;-66
2022/03/08 05:22:03;;;;;;;;;48.50;42.75;;;;;1.28;56.36;101429.09;5020560;28;45517;-66
2022/03/08 05:24:28;;;;;;;;;51.00;41.00;;;;;1.27;56.35;101426.47;5018166;28;45438;-66
2022/03/08 05:26:54;;;;;;;;;54.75;40.50;;;;;1.28;56.18;101423.72;5022413;28;45467;-66
2022/03/08 05:29:19;;;;;;;;;53.25;42.00;;;;;1.31;55.83;101423.59;5021264;28;45844;-66
2022/03/08 05:31:45;;;;;;;;;56.50;41.25;;;;;1.37;55.51;101422.44;5021694;28;45552;-66
2022/03/08 05:34:10;;;;;;;;;53.50;43.50;;;;;1.30;55.96;101418.31;5012215;28;47450;-66
2022/03/08 05:36:35;;;;;;;;;56.50;44.75;;;;;1.33;55.80;101424.38;5011066;28;45390;-66
2022/03/08 05:39:01;;;;;;;;;43.75;39.75;;;;;1.33;55.87;101427.06;5014097;28;45410;-66
2022/03/08 05:41:27;;;;;;;;;61.50;42.00;;;;;1.32;56.06;101419.97;5037931;28;45379;-66
2022/03/08 05:43:52;;;;;;;;;41.25;35.75;;;;;1.36;55.62;101424.25;5012554;28;47954;-66
2022/03/08 05:46:17;;;;;;;;;57.25;44.25;;;;;1.36;55.66;101410.00;5035305;28;45378;-67
2022/03/08 05:48:43;;;;;;;;;47.50;37.50;;;;;1.38;55.51;101419.69;5017933;28;45362;-66
2022/03/08 05:51:08;;;;;;;;;50.25;38.50;;;;;1.35;55.55;101414.47;5023364;28;45390;-66
2022/03/08 05:53:34;;;;;;;;;50.50;40.50;;;;;1.30;55.72;101405.81;5015699;28;46285;-67
2022/03/08 05:55:59;;;;;;;;;50.25;40.50;;;;;1.38;55.45;101422.38;5015098;28;45442;-67
2022/03/08 05:58:25;;;;;;;;;51.50;38.75;;;;;1.28;56.20;101413.03;5021400;28;45351;-67
2022/03/08 06:00:50;;;;;;;;;59.25;42.75;;;;;1.29;56.26;101414.78;5013009;28;45362;-67
2022/03/08 06:03:15;;;;;;;;;65.75;48.00;;;;;1.36;55.66;101415.34;5021289;28;46246;-66
2022/03/08 06:05:41;;;;;;;;;50.50;36.00;;;;;1.42;55.42;101415.91;5018078;28;45339;-66
2022/03/08 06:08:06;;;;;;;;;50.25;43.25;;;;;1.42;55.52;101415.03;5037202;28;46611;-66
2022/03/08 06:10:33;;;;;;;;;56.50;46.00;;;;;1.40;55.81;101420.47;5014185;28;45562;-66
2022/03/08 06:12:59;;;;;;;;;49.75;42.25;;;;;1.41;55.57;101430.22;5021983;28;45708;-66
2022/03/08 06:15:24;;;;;;;;;57.50;44.00;;;;;1.40;55.45;101423.13;5014167;28;45433;-65
2022/03/08 06:17:50;;;;;;;;;55.25;43.75;;;;;1.47;55.61;101435.28;5021543;28;45433;-66
2022/03/08 06:20:15;;;;;;;;;63.00;46.25;;;;;1.40;55.62;101431.16;5015359;28;45429;-67
2022/03/08 06:22:41;;;;;;;;;54.25;46.00;;;;;1.42;55.71;101437.31;5021627;28;46401;-65
2022/03/08 06:25:07;;;;;;;;;62.00;46.25;;;;;1.46;55.43;101440.75;5017055;28;45306;-65
2022/03/08 06:27:33;;;;;;;;;49.25;42.00;;;;;1.44;55.36;101430.09;5014333;28;45348;-67
2022/03/08 06:29:58;;;;;;;;;52.50;43.00;;;;;1.47;55.21;101435.28;5022580;28;45529;-65
2022/03/08 06:32:24;;;;;;;;;55.75;42.25;;;;;1.52;55.19;101435.97;5019181;28;48235;-65
2022/03/08 06:34:52;;;;;;;;;55.00;45.50;;;;;1.51;55.31;101442.25;5013888;28;45239;-65
2022/03/08 06:37:18;;;;;;;;;52.25;44.75;;;;;1.54;55.58;101441.22;5020667;28;45408;-65
2022/03/08 06:39:46;;;;;;;;;53.50;40.75;;;;;1.59;55.66;101441.00;5013200;28;45507;-66
2022/03/08 06:42:11;;;;;;;;;62.25;47.00;;;;;1.59;55.30;101436.53;5020762;28;45544;-66
2022/03/08 06:44:40;;;;;;;;;60.50;45.00;;;;;1.72;54.92;101436.78;5020623;28;45431;-67
2022/03/08 06:47:06;;;;;;;;;56.75;43.25;;;;;1.78;54.45;101428.44;5018038;28;45461;-67
2022/03/08 06:49:32;;;;;;;;;56.50;45.50;;;;;1.85;54.66;101433.41;5011113;28;45363;-66
2022/03/08 06:51:58;;;;;;;;;55.25;44.75;;;;;1.92;54.38;101434.84;5019517;28;45452;-66
2022/03/08 06:54:23;;;;;;;;;60.25;47.25;;;;;1.92;54.46;101425.94;5020967;28;45216;-66
2022/03/08 06:56:49;;;;;;;;;59.00;46.00;;;;;2.03;54.01;101433.44;5010096;28;45342;-66
2022/03/08 06:59:14;;;;;;;;;63.25;48.25;;;;;2.05;54.07;101427.03;5024463;28;45341;-66
2022/03/08 07:01:40;;;;;;;;;65.00;46.50;;;;;2.14;54.26;101433.75;5021511;28;46964;-67
2022/03/08 07:04:05;;;;;;;;;63.00;45.75;;;;;2.22;53.94;101435.09;5024302;28;45331;-66
2022/03/08 07:06:31;;;;;;;;;43.75;34.25;;;;;2.32;53.90;101431.03;5022308;28;45333;-67
2022/03/08 07:08:57;;;;;;;;;79.50;53.00;;;;;2.39;53.42;101430.69;5018320;28;45342;-67
2022/03/08 07:11:23;;;;;;;;;55.50;42.75;;;;;2.50;53.39;101433.66;5019955;28;47673;-65
2022/03/08 07:13:48;;;;;;;;;56.00;42.25;;;;;2.55;53.17;101423.59;5021153;28;45683;-65
2022/03/08 07:16:14;;;;;;;;;49.25;44.00;;;;;2.65;52.69;101427.50;5021129;28;45461;-67
2022/03/08 07:18:39;;;;;;;;;59.00;48.50;;;;;2.67;52.40;101425.63;5022639;28;45220;-65
2022/03/08 07:21:05;;;;;;;;;57.75;44.25;;;;;2.76;52.63;101432.31;5020558;28;45349;-65
2022/03/08 07:23:30;;;;;;;;;59.00;46.50;;;;;2.88;52.48;101435.19;5021368;28;45924;-66
2022/03/08 07:25:56;;;;;;;;;59.00;44.25;;;;;2.94;52.25;101437.53;5036464;28;45371;-66
2022/03/08 07:28:21;;;;;;;;;60.75;46.00;;;;;3.06;52.10;101446.75;5022482;28;45454;-67
2022/03/08 07:30:47;;;;;;;;;62.25;44.50;;;;;3.14;51.67;101436.47;5023146;28;45746;-66
2022/03/08 07:33:12;;;;;;;;;63.25;48.75;;;;;3.19;51.56;101436.22;5022038;28;45381;-66
2022/03/08 07:35:38;;;;;;;;;70.50;47.75;;;;;3.28;51.23;101450.00;5024086;28;45864;-66
2022/03/08 07:38:03;;;;;;;;;64.50;45.50;;;;;3.37;51.07;101448.59;5017123;28;45414;-67
2022/03/08 07:40:29;;;;;;;;;66.25;47.25;;;;;3.38;50.48;101445.84;5021147;28;46469;-67
2022/03/08 07:42:54;;;;;;;;;62.50;48.75;;;;;3.50;50.39;101449.66;5018707;28;45456;-66
2022/03/08 07:45:19;;;;;;;;;59.25;46.75;;;;;3.57;50.15;101451.06;5019883;28;45310;-67
2022/03/08 07:47:45;;;;;;;;;60.50;44.00;;;;;3.53;50.17;101457.53;5019323;28;45433;-67
2022/03/08 07:50:11;;;;;;;;;59.00;44.00;;;;;3.71;50.13;101453.81;5011507;28;45761;-67
2022/03/08 07:52:36;;;;;;;;;65.25;51.75;;;;;3.83;49.94;101452.25;5018842;28;45448;-67
2022/03/08 07:55:03;;;;;;;;;64.50;51.00;;;;;4.13;49.47;101458.53;5012804;28;45401;-66
2022/03/08 07:57:28;;;;;;;;;56.75;48.00;;;;;4.38;49.10;101455.28;5022189;28;45356;-67
2022/03/08 07:59:53;;;;;;;;;59.00;46.50;;;;;4.76;49.09;101457.44;5028574;28;47357;-68
2022/03/08 08:02:19;;;;;;;;;65.25;46.50;;;;;4.89;47.43;101455.75;5020718;28;45398;-68
2022/03/08 08:04:44;;;;;;;;;56.00;42.00;;;;;5.17;46.71;101462.97;5018218;28;45471;-67
2022/03/08 08:07:09;;;;;;;;;64.50;50.75;;;;;5.56;47.73;101451.44;5022488;28;45449;-67
2022/03/08 08:09:35;;;;;;;;;60.25;44.25;;;;;5.89;46.83;101452.00;5030781;28;47546;-67
2022/03/08 08:12:00;;;;;;;;;63.50;48.25;;;;;6.13;46.75;101455.75;5023472;28;45401;-66
2022/03/08 08:14:26;;;;;;;;;65.75;46.25;;;;;6.33;44.93;101448.16;5016551;28;45449;-66
2022/03/08 08:16:51;;;;;;;;;66.25;46.50;;;;;6.37;44.62;101455.91;5023711;28;45432;-66
2022/03/08 08:19:17;;;;;;;;;62.75;46.00;;;;;6.51;44.77;101449.56;5017353;28;45394;-66
2022/03/08 08:21:42;;;;;;;;;61.50;47.25;;;;;6.72;44.41;101450.78;5023329;28;45331;-66
2022/03/08 08:24:08;;;;;;;;;60.25;44.50;;;;;6.99;45.20;101453.41;5017983;28;45292;-66
2022/03/08 08:26:34;;;;;;;;;58.75;48.75;;;;;7.16;43.96;101444.94;5021991;28;45544;-66
2022/03/08 08:28:59;;;;;;;;;63.00;48.00;;;;;7.33;43.41;101432.94;5022847;28;45564;-67
2022/03/08 08:31:26;;;;;;;;;50.25;42.25;;;;;7.50;43.16;101453.34;5021492;28;45386;-66
2022/03/08 08:33:52;;;;;;;;;56.75;45.75;;;;;7.60;42.66;101447.13;5013761;28;45436;-67
2022/03/08 08:36:18;;;;;;;;;56.75;45.00;;;;;7.71;41.80;101449.94;5023007;28;45280;-67
2022/03/08 08:38:43;;;;;;;;;57.50;43.50;;;;;7.74;41.56;101456.97;5018356;28;47372;-66
2022/03/08 08:41:09;;;;;;;;;56.75;42.50;;;;;7.92;41.13;101444.78;5023783;28;45371;-68
2022/03/08 08:43:34;;;;;;;;;65.50;45.25;;;;;8.11;41.89;101457.78;5018104;28;45422;-67
2022/03/08 08:45:59;;;;;;;;;57.00;42.50;;;;;8.14;41.72;101452.16;5022765;28;45197;-67
2022/03/08 08:48:26;;;;;;;;;53.50;43.75;;;;;8.27;41.25;101458.34;5018176;28;45500;-67
2022/03/08 08:50:52;;;;;;;;;44.25;39.25;;;;;8.41;41.17;101443.78;5011200;28;45145;-67
2022/03/08 08:53:18;;;;;;;;;58.75;43.75;;;;;8.68;40.33;101465.19;5018349;28;45378;-68
2022/03/08 08:55:44;;;;;;;;;51.00;43.00;;;;;8.73;39.03;101461.16;5022898;28;45272;-67
2022/03/08 08:58:09;;;;;;;;;58.00;43.50;;;;;8.86;40.61;101458.34;5022191;28;45832;-69
2022/03/08 09:00:35;;;;;;;;;60.50;47.50;;;;;9.01;39.38;101453.56;5013053;28;45457;-67
2022/03/08 09:03:01;;;;;;;;;60.25;45.50;;;;;9.22;39.30;101460.84;5018600;28;45386;-68
2022/03/08 09:05:27;;;;;;;;;52.25;43.00;;;;;9.23;38.10;101456.28;5018106;28;45517;-67
2022/03/08 09:07:53;;;;;;;;;56.50;42.00;;;;;9.28;38.86;101446.78;5022375;28;46302;-68
2022/03/08 09:10:22;;;;;;;;;60.75;48.50;;;;;9.44;38.80;101442.84;5015635;28;45449;-67
2022/03/08 09:12:50;;;;;;;;;57.00;44.75;;;;;9.57;38.44;101449.84;5019873;28;45384;-68
2022/03/08 09:15:16;;;;;;;;;58.50;45.00;;;;;9.68;37.29;101447.16;5026952;28;45611;-67
2022/03/08 09:17:42;;;;;;;;;55.50;43.00;;;;;9.61;37.02;101431.50;5020846;28;46280;-68
2022/03/08 09:20:08;;;;;;;;;53.25;42.75;;;;;9.81;37.13;101437.97;5015690;28;45337;-67
2022/03/08 09:22:34;;;;;;;;;58.25;47.25;;;;;9.82;36.19;101443.28;5022090;28;45353;-67
2022/03/08 09:24:59;;;;;;;;;62.75;46.75;;;;;9.81;36.09;101435.28;5018579;28;45233;-67
2022/03/08 09:27:24;;;;;;;;;65.75;49.50;;;;;9.83;37.34;101434.16;5021949;28;45444;-66
2022/03/08 09:29:50;;;;;;;;;60.75;45.25;;;;;9.98;36.96;101432.91;5021723;28;45244;-66
2022/03/08 09:32:16;;;;;;;;;59.25;46.25;;;;;10.40;37.27;101431.16;5022440;28;45343;-66
2022/03/08 09:34:42;;;;;;;;;61.25;45.00;;;;;10.47;36.13;101426.06;5013260;28;45242;-66
2022/03/08 09:37:08;;;;;;;;;51.25;42.75;;;;;10.69;36.60;101427.78;5021699;28;45579;-67
2022/03/08 09:39:37;;;;;;;;;56.00;43.00;;;;;10.79;35.43;101423.28;5013952;28;45350;-69
2022/03/08 09:42:03;;;;;;;;;57.00;45.25;;;;;10.89;34.95;101421.47;5019273;28;45386;-69
2022/03/08 09:44:29;;;;;;;;;54.25;43.25;;;;;11.15;35.53;101419.19;5014322;28;45513;-68
2022/03/08 09:46:54;;;;;;;;;56.75;43.50;;;;;11.40;36.72;101421.44;5021427;28;45460;-67
2022/03/08 09:49:20;;;;;;;;;47.50;38.00;;;;;11.58;35.19;101416.22;5011296;28;45360;-67
2022/03/08 09:51:46;;;;;;;;;57.00;40.75;;;;;11.36;35.03;101414.56;5016668;28;45778;-67
2022/03/08 09:54:11;;;;;;;;;56.50;46.00;;;;;11.63;35.00;101409.34;5012583;28;45599;-67
2022/03/08 09:56:37;;;;;;;;;55.00;42.00;;;;;11.87;34.78;101414.47;5014469;28;47339;-67
2022/03/08 09:59:03;;;;;;;;;51.00;43.75;;;;;11.84;34.28;101416.59;5021515;28;45472;-67
2022/03/08 10:01:28;;;;;;;;;53.75;43.75;;;;;12.13;35.01;101411.22;5022471;28;45219;-67
2022/03/08 10:03:54;;;;;;;;;54.25;40.25;;;;;12.38;34.82;101408.75;5021710;28;45373;-67
2022/03/08 10:06:19;;;;;;;;;59.00;44.75;;;;;12.43;34.06;101409.19;5020526;28;47463;-68
2022/03/08 10:08:45;;;;;;;;;56.25;46.50;;;;;12.46;33.41;101403.44;5018363;28;46005;-68
2022/03/08 10:11:14;;;;;;;;;60.75;47.50;;;;;12.18;32.91;101406.19;5017234;28;45317;-68
2022/03/08 10:13:44;;;;;;;;;61.75;46.50;;;;;11.80;33.47;101391.53;5020769;28;46081;-69
2022/03/08 10:16:41;;;;;;;;;64.75;49.50;;;;;11.68;34.30;101396.19;5017703;28;46337;-69
2022/03/08 10:19:09;;;;;;;;;57.50;45.00;;;;;12.01;33.77;101405.88;5026125;28;45461;-68
2022/03/08 10:21:37;;;;;;;;;57.00;46.00;;;;;11.98;34.12;101397.97;5037140;28;45868;-68
2022/03/08 10:24:22;;;;;;;;;57.25;45.50;;;;;11.82;34.03;101402.28;5014869;28;45460;-68
2022/03/08 10:26:51;;;;;;;;;56.00;42.75;;;;;11.89;34.41;101397.97;5021709;28;46482;-68
2022/03/08 10:29:26;;;;;;;;;58.25;44.25;;;;;11.86;34.88;101395.53;5022639;28;45882;-69
2022/03/08 10:32:20;;;;;;;;;54.50;43.00;;;;;12.04;34.83;101396.56;5023577;28;45378;-67
2022/03/08 10:34:54;;;;;;;;;61.75;45.00;;;;;11.92;34.45;101386.78;5023394;28;45345;-68
2022/03/08 10:37:23;;;;;;;;;59.00;46.25;;;;;11.59;34.85;101388.88;5024410;28;45386;-70
2022/03/08 10:39:57;;;;;;;;;55.25;44.75;;;;;11.45;34.81;101389.25;5016729;28;45422;-68
2022/03/08 10:42:28;;;;;;;;;61.50;46.75;;;;;10.88;35.48;101388.00;5033467;28;45535;-68
2022/03/08 10:45:03;;;;;;;;;57.75;48.00;;;;;10.81;36.41;101389.53;5017928;28;45268;-68
2022/03/08 10:47:41;;;;;;;;;59.50;45.00;;;;;10.80;36.51;101395.13;5023479;28;47367;-68
2022/03/08 10:50:07;;;;;;;;;61.50;48.25;;;;;10.73;36.36;101386.63;5013534;28;45576;-68
2022/03/08 10:52:36;;;;;;;;;60.00;47.00;;;;;10.59;36.23;101378.84;5022853;28;45505;-68
2022/03/08 10:55:35;;;;;;;;;62.75;47.75;;;;;10.43;36.60;101384.72;5014724;28;45248;-68
2022/03/08 10:58:08;;;;;;;;;60.75;47.00;;;;;10.14;37.30;101381.75;5024445;28;46740;-68
2022/03/08 11:00:38;;;;;;;;;58.75;45.50;;;;;9.99;37.67;101384.91;5022847;28;45354;-68
2022/03/08 11:03:07;;;;;;;;;59.75;45.25;;;;;9.97;38.17;101387.72;5025006;28;45413;-68
2022/03/08 11:05:36;;;;;;;;;64.25;47.25;;;;;9.95;38.01;101378.84;5020352;28;45352;-69
2022/03/08 11:08:02;;;;;;;;;45.75;41.25;;;;;9.89;37.95;101373.06;5024575;28;45470;-68
2022/03/08 11:10:29;;;;;;;;;55.50;44.25;;;;;9.89;38.43;101379.38;5027384;28;45688;-68
2022/03/08 11:12:56;;;;;;;;;64.25;45.75;;;;;9.89;38.51;101368.50;5024824;28;45470;-69